createdAt,value
2023-04-24T00:04:46.101Z,0.70
2023-04-24T00:09:37.976Z,0.73
2023-04-24T00:20:15.631Z,0.80
2023-04-24T00:25:07.990Z,0.70
2023-04-24T00:29:59.664Z,0.70
2023-04-24T00:34:51.347Z,0.80
2023-04-24T00:39:43.297Z,0.63
2023-04-24T00:44:35.799Z,0.60
2023-04-24T00:49:27.940Z,0.70
2023-04-24T00:54:19.654Z,0.80
2023-04-24T00:59:13.340Z,0.90
2023-04-24T01:04:05.590Z,0.80
2023-04-24T01:08:58.992Z,1.00
2023-04-24T01:13:50.858Z,0.80
2023-04-24T01:18:43.393Z,0.43
2023-04-24T01:23:35.784Z,0.60
2023-04-24T01:28:27.587Z,0.50
2023-04-24T01:33:19.372Z,0.50
2023-04-24T01:38:11.687Z,0.30
2023-04-24T01:43:03.536Z,0.43
2023-04-24T01:47:55.482Z,0.40
2023-04-24T01:52:47.200Z,0.20
2023-04-24T01:57:39.778Z,0.30
2023-04-24T02:02:32.112Z,0.30
2023-04-24T02:07:24.010Z,0.13
2023-04-24T02:12:18.814Z,0.40
2023-04-24T02:17:10.867Z,0.30
2023-04-24T02:22:02.562Z,0.20
2023-04-24T02:26:54.227Z,0.43
2023-04-24T02:31:55.280Z,0.30
2023-04-24T02:36:47.293Z,0.40
2023-04-24T02:41:39.082Z,0.10
2023-04-24T02:46:30.832Z,0.40
2023-04-24T02:51:22.601Z,0.30
2023-04-24T02:56:14.324Z,0.20
2023-04-24T03:01:06.161Z,0.20
2023-04-24T03:05:58.270Z,0.63
2023-04-24T03:10:50.261Z,0.30
2023-04-24T03:15:41.966Z,0.20
2023-04-24T03:20:33.687Z,0.40
2023-04-24T03:25:25.920Z,0.20
2023-04-24T03:30:17.835Z,0.10
2023-04-24T03:35:09.850Z,0.10
2023-04-24T03:40:02.580Z,0.20
2023-04-24T03:44:54.945Z,0.20
2023-04-24T03:49:46.801Z,0.30
2023-04-24T03:54:38.466Z,0.43
2023-04-24T03:59:30.196Z,0.30
2023-04-24T04:04:22.534Z,0.40
2023-04-24T04:09:15.586Z,0.20
2023-04-24T04:14:07.379Z,0.20
2023-04-24T04:18:59.485Z,0.23
2023-04-24T04:23:51.453Z,0.13
2023-04-24T04:28:43.164Z,0.10
2023-04-24T04:33:37.004Z,0.10
2023-04-24T04:38:30.865Z,0.30
2023-04-24T04:43:22.617Z,0.20
2023-04-24T04:48:15.077Z,0.50
2023-04-24T04:53:07.558Z,0.30
2023-04-24T04:58:01.153Z,0.27
2023-04-24T05:02:53.120Z,0.40
2023-04-24T05:07:45.350Z,0.40
2023-04-24T05:12:37.557Z,0.80
2023-04-24T05:17:31.234Z,0.10
2023-04-24T05:22:23.654Z,0.30
2023-04-24T05:27:17.186Z,0.33
2023-04-24T05:32:10.713Z,0.40
2023-04-24T05:37:02.869Z,0.20
2023-04-24T05:41:54.551Z,0.30
2023-04-24T05:46:47.137Z,0.30
2023-04-24T05:51:40.285Z,0.47
2023-04-24T05:56:32.323Z,0.40
2023-04-24T06:01:24.888Z,0.50
2023-04-24T06:06:16.940Z,0.40
2023-04-24T06:11:16.275Z,0.60
2023-04-24T06:16:09.526Z,0.43
2023-04-24T06:21:01.738Z,0.50
2023-04-24T06:30:59.133Z,0.53
2023-04-24T06:35:51.673Z,0.60
2023-04-24T06:40:46.737Z,0.63
2023-04-24T06:45:40.884Z,1.00
2023-04-24T06:50:33.522Z,0.90
2023-04-24T06:55:25.210Z,1.00
2023-04-24T07:00:17.829Z,1.10
2023-04-24T07:05:09.697Z,1.17
2023-04-24T07:10:02.319Z,1.15
2023-04-24T07:14:54.293Z,1.02
2023-04-24T07:19:46.935Z,0.90
2023-04-24T07:24:46.914Z,1.45
2023-04-24T07:34:46.902Z,1.30
2023-04-24T07:39:39.116Z,1.33
2023-04-24T07:44:30.984Z,1.40
2023-04-24T07:49:22.725Z,1.37
2023-04-24T07:54:15.339Z,1.45
2023-04-24T07:59:09.832Z,1.00
2023-04-24T08:04:02.131Z,1.30
2023-04-24T08:08:55.332Z,1.33
2023-04-24T08:13:47.061Z,1.20
2023-04-24T08:18:39.433Z,1.10
2023-04-24T08:23:34.126Z,0.90
2023-04-24T08:33:39.298Z,1.20
2023-04-24T08:43:42.745Z,1.00
2023-04-24T08:48:35.534Z,1.17
2023-04-24T08:53:27.927Z,1.13
2023-04-24T08:58:20.575Z,1.00
2023-04-24T09:03:12.532Z,0.97
2023-04-24T09:08:08.292Z,1.30
2023-04-24T09:13:02.819Z,1.33
2023-04-24T09:17:57.351Z,1.10
2023-04-24T09:22:49.233Z,1.90
2023-04-24T09:27:46.301Z,1.70
2023-04-24T09:32:38.230Z,1.10
2023-04-24T09:37:39.295Z,1.50
2023-04-24T09:42:32.750Z,1.30
2023-04-24T09:47:25.087Z,1.67
2023-04-24T09:52:18.483Z,1.00
2023-04-24T10:02:25.376Z,1.50
2023-04-24T10:07:17.849Z,1.40
2023-04-24T10:12:12.182Z,1.52
2023-04-24T10:38:27.055Z,1.10
2023-04-24T10:48:28.794Z,1.20
2023-04-24T10:58:53.949Z,1.87
2023-04-24T11:15:06.581Z,1.00
2023-04-24T11:35:58.176Z,1.30
2023-04-24T11:40:50.847Z,1.20
2023-04-24T11:45:49.790Z,1.30
2023-04-24T12:01:06.501Z,1.25
2023-04-24T12:11:24.357Z,0.95
2023-04-24T12:42:00.925Z,1.15
2023-04-24T12:52:00.900Z,1.67
2023-04-24T12:56:53.617Z,1.13
2023-04-24T13:01:46.555Z,1.10
2023-04-24T13:06:39.418Z,1.60
2023-04-24T13:11:39.874Z,1.20
2023-04-24T13:32:02.603Z,0.93
2023-04-24T13:37:00.668Z,1.20
2023-04-24T13:47:02.255Z,1.35
2023-04-24T13:51:56.499Z,1.08
2023-04-24T13:56:49.146Z,1.42
2023-04-24T14:01:43.139Z,1.30
2023-04-24T14:11:45.494Z,1.60
2023-04-24T14:16:39.798Z,1.13
2023-04-24T14:21:34.363Z,1.00
2023-04-24T14:26:27.245Z,1.10
2023-04-24T14:31:22.990Z,1.25
2023-04-24T14:36:16.937Z,1.20
2023-04-24T14:41:13.886Z,1.20
2023-04-24T14:51:16.123Z,1.30
2023-04-24T14:56:09.030Z,1.30
2023-04-24T15:01:06.019Z,1.38
2023-04-24T15:05:59.530Z,1.20
2023-04-24T15:16:01.773Z,1.20
2023-04-24T15:20:55.440Z,1.20
2023-04-24T15:25:54.609Z,1.40
2023-04-24T15:30:50.687Z,1.30
2023-04-24T15:35:43.253Z,1.08
2023-04-24T15:40:38.668Z,1.60
2023-04-24T15:45:31.293Z,1.20
2023-04-24T15:50:24.083Z,1.63
2023-04-24T16:00:21.996Z,1.75
2023-04-24T16:10:20.325Z,1.38
2023-04-24T16:15:12.419Z,1.30
2023-04-24T16:20:05.427Z,1.20
2023-04-24T16:24:58.467Z,1.43
2023-04-24T16:29:50.604Z,1.50
2023-04-24T16:34:42.835Z,1.30
2023-04-24T16:39:35.285Z,1.40
2023-04-24T16:44:27.482Z,1.90
2023-04-24T16:49:23.404Z,1.38
2023-04-24T16:54:15.186Z,1.50
2023-04-24T16:59:07.811Z,1.80
2023-04-24T17:03:59.879Z,1.50
2023-04-24T17:08:54.426Z,1.90
2023-04-24T17:13:53.959Z,1.97
2023-04-24T17:18:46.666Z,1.57
2023-04-24T17:23:41.103Z,1.50
2023-04-24T17:33:41.124Z,1.70
2023-04-24T17:38:33.686Z,1.53
2023-04-24T17:43:26.044Z,1.40
2023-04-24T17:53:35.585Z,1.40
2023-04-24T17:58:28.328Z,1.60
2023-04-24T18:13:45.532Z,1.47
2023-04-24T18:18:38.245Z,1.60
2023-04-24T18:38:49.216Z,1.50
2023-04-24T18:43:41.973Z,1.30
2023-04-24T18:53:40.596Z,1.50
2023-04-24T18:58:33.359Z,1.50
2023-04-24T19:03:25.250Z,1.53
2023-04-24T19:08:16.988Z,1.47
2023-04-24T19:13:08.732Z,1.50
2023-04-24T19:18:00.480Z,1.30
2023-04-24T19:22:53.716Z,1.40
2023-04-24T19:27:46.959Z,1.80
2023-04-24T19:32:39.648Z,1.40
2023-04-24T19:37:40.323Z,1.50
2023-04-24T19:42:43.092Z,1.50
2023-04-24T19:47:35.462Z,1.97
2023-04-24T19:52:27.736Z,1.73
2023-04-24T19:57:20.092Z,1.70
2023-04-24T20:02:18.549Z,1.67
2023-04-24T20:07:14.567Z,2.00
2023-04-24T20:12:09.811Z,1.73
2023-04-24T20:17:02.134Z,1.67
2023-04-24T20:21:55.507Z,1.87
2023-04-24T20:26:55.658Z,1.80
2023-04-24T20:31:49.216Z,1.60
2023-04-24T20:36:45.590Z,1.90
2023-04-24T20:41:40.593Z,1.80
2023-04-24T20:46:33.113Z,1.70
2023-04-24T20:51:24.950Z,1.83
2023-04-24T20:56:17.482Z,2.00
2023-04-24T21:01:09.178Z,2.20
2023-04-24T21:06:00.932Z,1.60
2023-04-24T21:10:56.504Z,1.90
2023-04-24T21:15:48.389Z,2.00
2023-04-24T21:20:40.779Z,2.00
2023-04-24T21:30:41.179Z,2.10
2023-04-24T21:35:33.508Z,2.00
2023-04-24T21:40:25.245Z,2.00
2023-04-24T21:45:17.095Z,2.07
2023-04-24T21:50:10.833Z,2.03
2023-04-24T21:55:03.621Z,2.20
2023-04-24T21:59:56.998Z,2.30
2023-04-24T22:20:46.475Z,2.20
2023-04-24T22:30:45.849Z,2.23
2023-04-24T22:35:37.678Z,2.10
2023-04-24T22:40:38.038Z,2.20
2023-04-24T22:45:29.785Z,2.13
2023-04-24T23:27:27.884Z,1.93
2023-04-24T23:32:19.659Z,2.07
2023-04-24T23:37:12.175Z,1.90
2023-04-24T23:42:04.281Z,1.83
2023-04-24T23:46:57.369Z,2.10
2023-04-24T23:51:49.758Z,1.70
2023-04-24T23:56:41.696Z,2.00
